Impacts METAR Board
IDs:

KSAT - San Antonio Intl, TX, US

Updated at: 1700 UTC 16 Oct 2021
Potential Impact None Slight Moderate High
Time 16/05Z 16/06Z 16/07Z 16/08Z 16/09Z 16/10Z 16/11Z 16/12Z 16/13Z 16/14Z 16/15Z 16/16Z 16/17Z
Temp67 66 65 63 62 60 59 57 57 60 64 67 68
Dewpt49 46 45 43 42 42 42 42 43 43 44 41 40
Altim30.20 30.21 30.23 30.24 30.25 30.26 30.28 30.31 30.33 30.35 30.37 30.38 30.38
VIS10 10 10 10 10 10 10 10 10 10 10 10 10
CIG-- -- 80 80 250 -- -- -- -- -- 250 -- 250
CoverFEWFEWBKNBKNBKNSCTSCTFEWFEWFEWBKNSCTBKN
FltCatVFRVFRVFRVFRVFRVFRVFRVFRVFRVFRVFRVFRVFR
WX--------------------------
WDir102010360101010101020203010
WSpd14 12 15 13 11 10 8 7 8 7 11 13 11
WGst22 24 21 23 21 -- -- -- -- -- 19 24 21
Raw hourly METARs
KSAT 160451Z 01014G22KT 10SM FEW250 19/09 A3020 RMK AO2 PK WND 02026/0355 SLP211 T01940094
KSAT 160551Z 02012G24KT 10SM FEW250 19/08 A3021 RMK AO2 PK WND 03027/0530 SLP212 T01890078 10239 20189 403110189 51022
KSAT 160651Z 01015G21KT 10SM BKN080 BKN250 18/07 A3023 RMK AO2 SLP220 T01830072
KSAT 160751Z 36013G23KT 10SM BKN080 BKN250 17/06 A3024 RMK AO2 SLP223 T01720061
KSAT 160851Z 01011G21KT 10SM SCT080 BKN250 17/06 A3025 RMK AO2 SLP226 T01670056 51012
KSAT 160951Z 01010KT 10SM FEW080 SCT250 16/06 A3026 RMK AO2 SLP231 T01560056
KSAT 161051Z 01008KT 10SM FEW080 SCT250 15/06 A3028 RMK AO2 SLP241 T01500056
KSAT 161151Z 01007KT 10SM FEW250 14/06 A3031 RMK AO2 SLP251 70073 T01390056 10189 20139 53022
KSAT 161251Z 01008KT 10SM FEW250 14/06 A3033 RMK AO2 SLP257 T01390061
KSAT 161351Z 02007KT 10SM FEW250 16/06 A3035 RMK AO2 SLP264 T01560061
KSAT 161451Z 02011G19KT 10SM BKN250 18/07 A3037 RMK AO2 SLP270 T01780067 53019
KSAT 161551Z 03013G24KT 10SM SCT250 19/05 A3038 RMK AO2 PK WND 05027/1535 SLP275 T01940050
KSAT 161651Z 01011G21KT 10SM BKN250 20/04 A3038 RMK AO2 SLP273 T02000044